createdAt,value
2019-03-15T00:02:32.308Z,55.30
2019-03-15T00:07:37.088Z,55.28
2019-03-15T00:13:12.403Z,55.28
2019-03-15T00:18:16.995Z,55.51
2019-03-15T00:23:21.276Z,56.13
2019-03-15T00:28:25.640Z,55.40
2019-03-15T00:33:29.980Z,56.62
2019-03-15T00:38:34.224Z,55.71
2019-03-15T00:43:38.487Z,55.71
2019-03-15T00:48:42.584Z,56.34
2019-03-15T00:53:47.073Z,56.92
2019-03-15T00:58:51.343Z,56.74
2019-03-15T01:03:55.389Z,57.13
2019-03-15T01:08:59.507Z,57.13
2019-03-15T01:14:03.851Z,57.01
2019-03-15T01:19:08.086Z,57.41
2019-03-15T01:24:12.177Z,57.38
2019-03-15T01:29:16.241Z,57.55
2019-03-15T01:34:20.281Z,57.55
2019-03-15T01:39:24.453Z,57.60
2019-03-15T01:44:28.710Z,57.86
2019-03-15T01:49:33.552Z,58.07
2019-03-15T01:54:37.925Z,57.99
2019-03-15T01:59:42.112Z,57.82
2019-03-15T02:04:46.144Z,57.91
2019-03-15T02:09:50.213Z,57.91
2019-03-15T02:14:54.264Z,58.22
2019-03-15T02:19:58.434Z,58.22
2019-03-15T02:25:02.929Z,57.67
2019-03-15T02:30:07.089Z,58.14
2019-03-15T02:35:11.380Z,58.19
2019-03-15T02:40:15.569Z,58.19
2019-03-15T02:45:19.750Z,58.53
2019-03-15T02:50:23.951Z,57.74
2019-03-15T02:55:28.161Z,58.22
2019-03-15T03:00:32.288Z,58.22
2019-03-15T03:05:36.457Z,58.77
2019-03-15T03:10:40.575Z,58.77
2019-03-15T03:15:45.010Z,58.94
2019-03-15T03:20:49.209Z,59.16
2019-03-15T03:25:53.525Z,58.67
2019-03-15T03:30:57.794Z,58.67
2019-03-15T03:36:01.900Z,58.90
2019-03-15T03:41:06.003Z,59.17
2019-03-15T03:46:10.141Z,58.88
2019-03-15T03:51:14.359Z,58.83
2019-03-15T03:56:18.916Z,59.26
2019-03-15T04:01:23.547Z,59.26
2019-03-15T04:06:27.846Z,59.26
2019-03-15T04:11:31.853Z,59.77
2019-03-15T04:16:36.080Z,59.29
2019-03-15T04:21:40.176Z,59.29
2019-03-15T04:26:44.273Z,59.31
2019-03-15T04:31:48.411Z,59.61
2019-03-15T04:36:52.544Z,59.12
2019-03-15T04:41:57.084Z,59.46
2019-03-15T04:47:01.450Z,60.15
2019-03-15T04:52:06.152Z,60.25
2019-03-15T04:57:13.368Z,60.43
2019-03-15T05:02:17.686Z,60.43
2019-03-15T05:07:22.063Z,60.13
2019-03-15T05:12:26.143Z,60.21
2019-03-15T05:17:30.345Z,59.99
2019-03-15T05:22:34.485Z,60.08
2019-03-15T05:27:38.781Z,59.61
2019-03-15T05:32:43.012Z,59.96
2019-03-15T05:37:47.249Z,60.12
2019-03-15T05:42:51.458Z,60.07
2019-03-15T05:47:55.603Z,60.05
2019-03-15T05:52:59.906Z,59.78
2019-03-15T05:58:04.225Z,59.90
2019-03-15T06:03:08.420Z,59.93
2019-03-15T06:08:12.563Z,60.02
2019-03-15T06:13:16.895Z,60.02
2019-03-15T06:18:21.297Z,60.00
2019-03-15T06:23:25.591Z,60.00
2019-03-15T06:28:30.073Z,59.51
2019-03-15T06:33:34.476Z,59.49
2019-03-15T06:38:38.823Z,59.77
2019-03-15T06:43:43.116Z,59.76
2019-03-15T06:48:47.464Z,59.91
2019-03-15T06:53:51.746Z,59.78
2019-03-15T06:58:55.992Z,59.78
2019-03-15T07:04:00.259Z,59.42
2019-03-15T07:09:05.384Z,59.48
2019-03-15T07:14:09.544Z,59.48
2019-03-15T07:19:25.491Z,59.29
2019-03-15T07:24:25.137Z,59.45
2019-03-15T07:29:25.771Z,59.27
2019-03-15T07:34:30.000Z,59.27
2019-03-15T07:39:34.192Z,59.39
2019-03-15T07:44:38.864Z,59.74
2019-03-15T07:49:43.176Z,59.74
2019-03-15T07:54:47.473Z,59.70
2019-03-15T07:59:51.694Z,59.67
2019-03-15T08:04:56.033Z,59.35
2019-03-15T08:10:02.321Z,59.26
2019-03-15T08:15:06.894Z,59.26
2019-03-15T08:20:11.367Z,57.69
2019-03-15T08:25:15.740Z,56.98
2019-03-15T08:30:19.927Z,56.51
2019-03-15T08:35:24.666Z,55.32
2019-03-15T08:40:28.975Z,54.28
2019-03-15T08:45:33.055Z,53.65
2019-03-15T08:50:37.081Z,53.65
2019-03-15T08:55:41.196Z,53.02
2019-03-15T09:00:45.224Z,51.69
2019-03-15T09:05:49.952Z,50.68
2019-03-15T09:10:54.255Z,51.27
2019-03-15T09:15:58.354Z,51.85
2019-03-15T09:21:02.373Z,49.40
2019-03-15T09:26:40.740Z,49.40
2019-03-15T09:31:48.121Z,49.21
2019-03-15T09:36:50.686Z,51.30
2019-03-15T09:41:54.776Z,51.60
2019-03-15T09:47:02.262Z,51.80
2019-03-15T09:52:04.707Z,51.70
2019-03-15T09:57:08.777Z,51.71
2019-03-15T10:02:12.950Z,51.71
2019-03-15T10:07:17.100Z,52.07
2019-03-15T10:12:21.299Z,52.46
2019-03-15T10:17:25.372Z,52.39
2019-03-15T10:22:29.377Z,52.39
2019-03-15T10:27:33.511Z,53.03
2019-03-15T10:32:37.626Z,53.38
2019-03-15T10:37:41.704Z,53.36
2019-03-15T10:42:45.804Z,53.34
2019-03-15T10:47:50.407Z,53.34
2019-03-15T10:52:54.563Z,54.09
2019-03-15T10:57:58.658Z,54.33
2019-03-15T11:03:02.775Z,54.16
2019-03-15T11:08:06.898Z,54.16
2019-03-15T11:13:10.909Z,53.91
2019-03-15T11:18:14.991Z,54.57
2019-03-15T11:23:19.006Z,54.50
2019-03-15T11:28:23.021Z,54.55
2019-03-15T11:33:27.028Z,54.78
2019-03-15T11:38:46.916Z,55.21
2019-03-15T11:43:51.106Z,55.57
2019-03-15T11:48:55.389Z,55.69
2019-03-15T11:53:59.374Z,57.50
2019-03-15T11:59:03.712Z,57.50
2019-03-15T12:04:07.836Z,58.00
2019-03-15T12:09:11.853Z,58.48
2019-03-15T12:14:15.901Z,58.48
2019-03-15T12:19:19.937Z,58.89
2019-03-15T12:24:24.040Z,58.57
2019-03-15T12:29:28.103Z,59.15
2019-03-15T12:34:32.413Z,59.00
2019-03-15T12:39:36.440Z,58.87
2019-03-15T12:44:40.472Z,58.91
2019-03-15T12:49:44.503Z,58.51
2019-03-15T12:54:48.541Z,58.24
2019-03-15T12:59:52.546Z,58.42
2019-03-15T13:04:56.635Z,58.59
2019-03-15T13:10:00.775Z,58.07
2019-03-15T13:15:05.465Z,58.07
2019-03-15T13:20:10.587Z,58.55
2019-03-15T13:25:14.658Z,58.14
2019-03-15T13:30:18.889Z,58.46
2019-03-15T13:35:22.913Z,58.15
2019-03-15T13:40:27.006Z,58.39
2019-03-15T13:45:31.439Z,58.39
2019-03-15T13:50:35.456Z,58.03
2019-03-15T13:55:39.563Z,58.61
2019-03-15T14:00:43.614Z,58.29
2019-03-15T14:05:47.641Z,58.29
2019-03-15T14:10:51.661Z,58.19
2019-03-15T14:15:55.753Z,58.19
2019-03-15T14:20:59.838Z,57.96
2019-03-15T14:26:03.999Z,58.03
2019-03-15T14:31:08.176Z,58.06
2019-03-15T14:36:12.625Z,58.06
2019-03-15T14:41:17.016Z,58.22
2019-03-15T14:46:21.630Z,57.97
2019-03-15T14:51:25.744Z,57.97
2019-03-15T14:56:29.780Z,57.21
2019-03-15T15:01:33.957Z,57.06
2019-03-15T15:06:38.094Z,57.25
2019-03-15T15:11:42.157Z,57.25
2019-03-15T15:16:46.300Z,56.92
2019-03-15T15:21:52.817Z,56.92
2019-03-15T15:26:56.623Z,56.82
2019-03-15T15:32:00.669Z,56.82
2019-03-15T15:37:04.887Z,56.78
2019-03-15T15:42:09.087Z,57.29
2019-03-15T15:47:13.115Z,57.29
2019-03-15T15:52:17.262Z,56.39
2019-03-15T15:57:21.367Z,56.59
2019-03-15T16:02:25.551Z,56.59
2019-03-15T16:07:29.850Z,56.56
2019-03-15T16:12:34.334Z,56.56
2019-03-15T16:17:38.438Z,56.43
2019-03-15T16:22:42.675Z,56.37
2019-03-15T16:27:46.854Z,56.23
2019-03-15T16:32:50.987Z,56.02
2019-03-15T16:37:55.102Z,56.21
2019-03-15T16:42:59.260Z,56.21
2019-03-15T16:48:03.425Z,56.28
2019-03-15T16:53:07.527Z,56.28
2019-03-15T16:58:11.703Z,56.09
2019-03-15T17:03:15.836Z,56.37
2019-03-15T17:08:19.858Z,56.28
2019-03-15T17:13:24.081Z,56.90
2019-03-15T17:18:28.141Z,57.11
2019-03-15T17:23:32.193Z,56.41
2019-03-15T17:28:36.279Z,55.75
2019-03-15T17:33:51.709Z,56.24
2019-03-15T17:38:55.805Z,55.86
2019-03-15T17:43:59.873Z,56.34
2019-03-15T17:49:05.879Z,56.25
2019-03-15T17:54:13.977Z,55.95
2019-03-15T17:59:32.879Z,55.95
2019-03-15T18:10:13.078Z,55.78
2019-03-15T18:15:17.497Z,56.52
2019-03-15T18:20:22.685Z,56.65
2019-03-15T18:25:29.372Z,57.37
2019-03-15T18:30:36.128Z,57.37
2019-03-15T18:35:40.747Z,57.18
2019-03-15T18:40:45.112Z,57.01
2019-03-15T18:45:49.458Z,57.00
2019-03-15T18:50:53.886Z,56.99
2019-03-15T18:55:58.223Z,56.86
2019-03-15T19:01:06.731Z,56.07
2019-03-15T19:11:30.496Z,56.53
2019-03-15T19:16:35.847Z,56.81
2019-03-15T19:21:42.145Z,56.74
2019-03-15T19:26:52.814Z,56.90
2019-03-15T19:37:21.912Z,56.81
2019-03-15T19:42:27.563Z,56.30
2019-03-15T19:47:34.157Z,56.66
2019-03-15T19:52:42.310Z,56.66
2019-03-15T19:58:22.565Z,56.14
2019-03-15T20:21:39.890Z,56.09
2019-03-15T20:26:50.879Z,56.60
2019-03-15T20:43:50.900Z,56.57
2019-03-15T20:48:55.525Z,56.57
2019-03-15T20:54:00.015Z,56.34
2019-03-15T20:59:04.304Z,56.34
2019-03-15T21:04:08.720Z,56.13
2019-03-15T21:09:13.222Z,53.75
2019-03-15T21:14:17.682Z,53.63
2019-03-15T21:19:22.089Z,53.63
2019-03-15T21:24:26.318Z,55.75
2019-03-15T21:29:30.511Z,56.48
2019-03-15T21:34:34.627Z,56.48
2019-03-15T21:39:39.068Z,55.80
2019-03-15T21:44:43.363Z,55.80
2019-03-15T21:49:47.651Z,55.34
2019-03-15T21:54:52.137Z,56.21
2019-03-15T21:59:56.393Z,55.19
2019-03-15T22:05:00.894Z,54.83
2019-03-15T22:10:05.624Z,54.28
2019-03-15T22:15:10.008Z,56.15
2019-03-15T22:20:14.693Z,55.21
2019-03-15T22:25:19.007Z,54.07
2019-03-15T22:30:23.318Z,54.00
2019-03-15T22:35:27.762Z,53.98
2019-03-15T22:40:32.033Z,55.20
2019-03-15T22:45:36.247Z,55.40
2019-03-15T22:50:40.442Z,54.74
2019-03-15T22:55:44.775Z,55.76
2019-03-15T23:00:49.959Z,54.33
2019-03-15T23:05:54.178Z,55.33
2019-03-15T23:10:58.533Z,55.33
2019-03-15T23:16:02.910Z,55.02
2019-03-15T23:21:07.350Z,55.71
2019-03-15T23:26:11.738Z,54.36
2019-03-15T23:31:16.101Z,55.26
2019-03-15T23:36:20.423Z,55.26
2019-03-15T23:41:24.789Z,54.85
2019-03-15T23:46:29.091Z,55.25
2019-03-15T23:51:33.452Z,54.64
2019-03-15T23:56:37.925Z,54.97
